This is the latest recevied weather packets stored in our database for station/object N8SDR. If no packets are shown the sender has not sent any weather packets the latest 1 day(s).
| Time | Temp. | Humidity | Pressure | Rain* | Wind** | Luminosity | Snow |
|---|---|---|---|---|---|---|---|
| 1777982037 | 13.89° C | 99% | 1005.3 hPa | 0 mm | 0.45 m/s, 225° | 27 W/m² | - |
| 1777981735 | 13.89° C | 99% | 1005.3 hPa | 1.78 mm | 0.89 m/s, 208° | 27 W/m² | - |
| 1777981431 | 13.89° C | 99% | 1005 hPa | 1.78 mm | 0.45 m/s, 186° | 27 W/m² | - |
| 1777981128 | 13.89° C | 99% | 1004.9 hPa | 0 mm | 0 m/s | 18 W/m² | - |
| 1777980824 | 13.89° C | 99% | 1004.5 hPa | 0 mm | 1.34 m/s, 180° | 11 W/m² | - |
| 1777980520 | 13.89° C | 99% | 1004.5 hPa | 0 mm | 0.89 m/s, 227° | 10 W/m² | - |
| 1777980218 | 13.89° C | 99% | 1004.4 hPa | 0 mm | 0.89 m/s, 186° | 10 W/m² | - |
| 1777979913 | 13.89° C | 99% | 1004.4 hPa | 0 mm | 0.89 m/s, 184° | 12 W/m² | - |
| 1777979609 | 13.89° C | 99% | 1004.6 hPa | 0 mm | 1.34 m/s, 185° | 13 W/m² | - |
| 1777979305 | 13.89° C | 99% | 1004 hPa | 0 mm | 0.89 m/s, 212° | 11 W/m² | - |
| 1777979003 | 13.89° C | 99% | 1004.4 hPa | 0 mm | 0.45 m/s, 188° | 7 W/m² | - |
| 1777978699 | 13.89° C | 99% | 1003.8 hPa | 0 mm | 0 m/s | 7 W/m² | - |
| 1777978395 | 13.89° C | 99% | 1003.7 hPa | 0 mm | 2.24 m/s, 172° | 4 W/m² | - |
| 1777978091 | 13.33° C | 99% | 1003.9 hPa | 0 mm | 1.34 m/s, 167° | 2 W/m² | - |
| 1777977789 | 13.89° C | 99% | 1004.2 hPa | 0 mm | 1.34 m/s, 178° | 0 W/m² | - |
| 1777977485 | 13.89° C | 99% | 1004.3 hPa | 0 mm | 0.89 m/s, 204° | 0 W/m² | - |
| 1777977183 | 13.89° C | 99% | 1004.6 hPa | 0 mm | 0 m/s | 0 W/m² | - |
| 1777976880 | 13.89° C | 99% | 1004.9 hPa | 0 mm | 0 m/s | 0 W/m² | - |
| 1777976578 | 13.89° C | 99% | 1005.1 hPa | 0 mm | 0 m/s | 0 W/m² | - |
| 1777976277 | 13.89° C | 99% | 1005.2 hPa | 0 mm | 0 m/s | 0 W/m² | - |
| 1777975973 | 13.89° C | 99% | 1005.4 hPa | 1.27 mm | 0 m/s | 0 W/m² | - |
| 1777975669 | 13.89° C | 99% | 1005.6 hPa | 4.32 mm | 0 m/s | 0 W/m² | - |
| 1777975366 | 13.89° C | 99% | 1005.8 hPa | 6.6 mm | 0.89 m/s, 319° | 0 W/m² | - |
| 1777975061 | 13.89° C | 98% | 1005.8 hPa | 4.83 mm | 0.89 m/s, 295° | 0 W/m² | - |
| 1777974760 | 14.44° C | 97% | 1005.6 hPa | 4.32 mm | 0.45 m/s, 304° | 0 W/m² | - |
* Rain latest hour (hover to see other rain measurements)
** Current wind speed in m/s (hover to see current wind gust speed)